Time;durP1;ratioP1;P1;durP2;ratioP2;P2;SDS_P1;SDS_P2;PMS_P1;PMS_P2;Temp;Humidity;BMP_temperature;BMP_pressure;BME280_temperature;BME280_humidity;BME280_pressure;Samples;Min_cycle;Max_cycle;Signal;HPM_P1;HPM_P2
2023/05/14 00:02:07;;;;;;;;;48.67;39.00;;;;;14.23;69.96;101485.19;4960903;28;47339;-74
2023/05/14 00:04:33;;;;;;;;;34.33;33.67;;;;;14.17;69.97;101490.28;4943266;28;54265;-74
2023/05/14 00:06:58;;;;;;;;;58.67;47.00;;;;;14.18;69.98;101500.81;4943772;28;45245;-74
2023/05/14 00:09:23;;;;;;;;;53.00;45.00;;;;;14.16;69.89;101496.63;4961111;28;45244;-74
2023/05/14 00:11:49;;;;;;;;;53.00;42.00;;;;;14.09;70.13;101504.41;4943206;28;47418;-73
2023/05/14 00:14:14;;;;;;;;;53.00;44.00;;;;;14.30;69.37;101521.03;4960670;28;53251;-74
2023/05/14 00:16:39;;;;;;;;;47.00;40.67;;;;;14.20;69.46;101498.84;4961054;28;45390;-74
2023/05/14 00:19:04;;;;;;;;;57.00;44.67;;;;;13.95;69.73;101443.41;4944042;28;45213;-73
2023/05/14 00:21:31;;;;;;;;;48.00;40.67;;;;;14.22;69.03;101485.34;4961284;28;46061;-73
2023/05/14 00:23:56;;;;;;;;;57.33;44.67;;;;;14.35;68.90;101512.56;4959565;28;46218;-73
2023/05/14 00:26:22;;;;;;;;;52.00;40.33;;;;;14.42;68.62;101520.84;4961064;28;45306;-73
2023/05/14 00:28:48;;;;;;;;;52.00;43.33;;;;;14.14;68.50;101472.72;4961046;28;45303;-73
2023/05/14 00:31:13;;;;;;;;;52.67;43.33;;;;;13.97;68.03;101439.59;4960623;28;46204;-73
2023/05/14 00:33:38;;;;;;;;;57.00;45.00;;;;;14.39;68.05;101513.09;4942943;28;45331;-74
2023/05/14 00:36:04;;;;;;;;;57.00;47.00;;;;;14.30;67.96;101499.66;4960704;28;45419;-73
2023/05/14 00:38:29;;;;;;;;;53.33;39.33;;;;;14.30;67.94;101496.13;4960967;28;45529;-74
2023/05/14 00:40:55;;;;;;;;;49.67;40.67;;;;;14.43;67.62;101511.84;4943442;28;48290;-74
2023/05/14 00:43:21;;;;;;;;;59.33;45.67;;;;;14.37;67.33;101504.38;4960782;28;45181;-74
2023/05/14 00:45:49;;;;;;;;;45.00;40.67;;;;;14.39;67.67;101508.59;4960919;28;45410;-74
2023/05/14 00:48:15;;;;;;;;;53.67;44.33;;;;;14.15;67.25;101471.72;4960692;28;46297;-73
2023/05/14 00:50:41;;;;;;;;;55.67;43.67;;;;;14.14;67.76;101477.22;4960394;28;46109;-74
2023/05/14 00:53:09;;;;;;;;;59.00;46.00;;;;;14.28;67.82;101500.78;4960243;28;45412;-75
2023/05/14 00:55:37;;;;;;;;;51.67;42.33;;;;;14.13;68.42;101499.59;4960391;28;45342;-73
2023/05/14 00:58:06;;;;;;;;;56.33;45.67;;;;;13.82;68.59;101461.63;4942878;28;45473;-73
2023/05/14 01:00:32;;;;;;;;;47.00;38.33;;;;;13.49;68.40;101393.56;4960100;28;46354;-74
2023/05/14 01:03:00;;;;;;;;;51.67;42.33;;;;;14.06;67.87;101482.47;4942904;28;45449;-74
2023/05/14 01:05:33;;;;;;;;;52.00;42.00;;;;;13.94;68.18;101465.78;4943124;28;45487;-74
2023/05/14 01:08:12;;;;;;;;;52.00;42.33;;;;;14.18;67.68;101495.47;4960394;28;45353;-74
2023/05/14 01:11:02;;;;;;;;;54.67;44.67;;;;;14.11;67.61;101477.53;4959982;28;47844;-74
2023/05/14 01:13:51;;;;;;;;;61.33;49.67;;;;;14.08;68.01;101494.69;4959661;28;45447;-74
2023/05/14 01:16:18;;;;;;;;;56.00;45.33;;;;;13.84;68.31;101484.56;4960527;28;45249;-73
2023/05/14 01:18:45;;;;;;;;;52.00;44.33;;;;;13.74;68.61;101469.53;4942838;28;45495;-73
2023/05/14 01:21:37;;;;;;;;;55.33;44.67;;;;;13.77;69.06;101490.59;4942641;28;48512;-73
2023/05/14 01:24:02;;;;;;;;;55.67;46.33;;;;;13.70;69.38;101493.88;4960017;28;45270;-73
2023/05/14 01:26:30;;;;;;;;;55.33;44.67;;;;;13.54;69.39;101477.59;4942466;28;45238;-73
2023/05/14 01:29:01;;;;;;;;;56.33;46.67;;;;;13.66;69.38;101488.97;4960032;28;45577;-73
2023/05/14 01:31:31;;;;;;;;;55.33;44.33;;;;;13.52;69.66;101460.03;4959543;28;45319;-74
2023/05/14 01:33:59;;;;;;;;;53.00;44.00;;;;;13.25;69.06;101416.28;4958440;28;46410;-72
2023/05/14 01:36:24;;;;;;;;;51.33;42.00;;;;;13.53;69.17;101462.56;4942189;28;45252;-73
2023/05/14 01:38:50;;;;;;;;;58.00;46.00;;;;;13.78;68.64;101503.81;4959748;28;45347;-73
2023/05/14 01:41:18;;;;;;;;;52.33;43.33;;;;;13.58;68.92;101473.66;4942036;28;49047;-73
2023/05/14 01:43:44;;;;;;;;;60.00;49.00;;;;;13.55;68.81;101476.63;4959855;28;45307;-73
2023/05/14 01:46:09;;;;;;;;;60.00;49.50;;;;;13.60;69.00;101463.66;4960793;28;45521;-72
2023/05/14 01:48:36;;;;;;;;;56.00;46.25;;;;;13.60;68.39;101462.81;4959830;28;45235;-75
2023/05/14 01:51:02;;;;;;;;;64.00;51.25;;;;;13.18;68.51;101398.28;4942075;28;48097;-74
2023/05/14 01:53:28;;;;;;;;;64.00;50.50;;;;;13.55;68.81;101475.78;4959373;28;45565;-74
2023/05/14 01:55:53;;;;;;;;;57.75;47.75;;;;;13.55;69.70;101492.66;4941781;28;45335;-73
2023/05/14 01:58:18;;;;;;;;;61.00;49.33;;;;;13.04;69.64;101418.25;4959508;28;45418;-73
2023/05/14 02:00:44;;;;;;;;;59.00;47.00;;;;;13.36;69.93;101498.88;4959156;28;45583;-73
2023/05/14 02:03:09;;;;;;;;;59.33;48.00;;;;;13.22;70.67;101493.16;4959168;28;45359;-73
2023/05/14 02:05:35;;;;;;;;;62.00;48.67;;;;;13.37;70.33;101510.41;4959498;28;45680;-73
2023/05/14 02:08:00;;;;;;;;;63.50;52.00;;;;;13.34;70.07;101495.50;4959369;28;45557;-73
2023/05/14 02:10:25;;;;;;;;;59.50;47.25;;;;;13.38;70.05;101504.91;4959028;28;46734;-74
2023/05/14 02:12:51;;;;;;;;;65.00;52.75;;;;;13.20;70.50;101479.09;4958225;28;45491;-73
2023/05/14 02:15:16;;;;;;;;;59.67;48.67;;;;;13.17;70.86;101488.19;4959333;28;45662;-73
2023/05/14 02:17:41;;;;;;;;;48.00;39.00;;;;;13.04;71.33;101482.34;4941846;28;45846;-73
2023/05/14 02:20:09;;;;;;;;;55.25;45.00;;;;;13.07;71.59;101492.72;4959263;28;46329;-73
2023/05/14 02:22:34;;;;;;;;;61.75;49.00;;;;;13.06;71.14;101483.88;4958800;28;45401;-72
2023/05/14 02:24:59;;;;;;;;;58.50;48.50;;;;;13.20;70.62;101495.09;4958859;28;45473;-73
2023/05/14 02:27:25;;;;;;;;;60.75;50.75;;;;;13.05;70.76;101457.31;4943431;28;45519;-72
2023/05/14 02:29:50;;;;;;;;;55.00;45.25;;;;;13.22;70.10;101471.81;4959593;28;45472;-73
2023/05/14 02:32:15;;;;;;;;;64.75;51.00;;;;;13.06;70.23;101465.19;4958805;28;45405;-73
2023/05/14 02:34:41;;;;;;;;;51.00;42.50;;;;;13.19;70.30;101475.56;4941438;28;45508;-73
2023/05/14 02:37:06;;;;;;;;;54.67;43.00;;;;;12.61;70.22;101366.19;4959011;28;45379;-73
2023/05/14 02:39:32;;;;;;;;;63.75;49.50;;;;;13.38;70.14;101474.69;4941162;28;47550;-73
2023/05/14 02:41:57;;;;;;;;;62.33;49.33;;;;;13.42;69.82;101497.50;4958832;28;45264;-73
2023/05/14 02:44:22;;;;;;;;;61.33;48.33;;;;;13.34;69.53;101468.81;4958733;28;45252;-74
2023/05/14 02:46:48;;;;;;;;;58.00;47.25;;;;;13.30;68.94;101442.53;4959058;28;45339;-73
2023/05/14 02:49:13;;;;;;;;;64.25;50.75;;;;;13.50;69.36;101467.38;4958617;28;47911;-73
2023/05/14 02:51:38;;;;;;;;;59.33;48.00;;;;;13.59;69.10;101486.03;4960300;28;45547;-72
2023/05/14 02:54:04;;;;;;;;;57.00;45.33;;;;;13.46;69.16;101466.81;4942758;28;45530;-73
2023/05/14 02:56:29;;;;;;;;;60.67;49.33;;;;;12.84;69.60;101368.56;4959059;28;45331;-73
2023/05/14 02:58:54;;;;;;;;;59.67;49.33;;;;;13.48;69.76;101496.06;4958604;28;45834;-73
2023/05/14 03:01:20;;;;;;;;;63.75;50.25;;;;;13.29;69.90;101464.88;4940799;28;45328;-74
2023/05/14 03:03:45;;;;;;;;;58.00;48.75;;;;;13.33;70.25;101487.66;4957025;28;45403;-73
2023/05/14 03:06:11;;;;;;;;;59.67;49.67;;;;;13.19;71.08;101493.41;4957963;28;45600;-73
2023/05/14 03:08:36;;;;;;;;;61.75;47.00;;;;;12.93;71.73;101466.44;4956711;28;45408;-74
2023/05/14 03:11:01;;;;;;;;;57.50;47.50;;;;;12.99;71.51;101479.22;4948523;28;45372;-74
2023/05/14 03:13:27;;;;;;;;;55.67;44.00;;;;;12.91;71.96;101474.59;4938580;28;45234;-74
2023/05/14 03:15:53;;;;;;;;;62.00;50.67;;;;;12.93;71.91;101464.63;4936326;28;45373;-73
2023/05/14 03:18:19;;;;;;;;;54.67;44.00;;;;;12.88;71.59;101480.22;4958273;28;45929;-74
2023/05/14 03:20:45;;;;;;;;;55.67;45.00;;;;;12.63;72.37;101467.44;4957201;28;45239;-74
2023/05/14 03:23:10;;;;;;;;;52.00;43.67;;;;;12.57;72.78;101486.66;4957369;28;45292;-74
2023/05/14 03:25:35;;;;;;;;;57.25;43.50;;;;;12.27;72.52;101434.28;4957775;28;45216;-73
2023/05/14 03:28:02;;;;;;;;;50.33;41.00;;;;;12.57;73.06;101484.00;4957937;28;46550;-73
2023/05/14 03:30:27;;;;;;;;;60.67;46.00;;;;;12.58;73.28;101485.69;4947156;28;45490;-74
2023/05/14 03:32:53;;;;;;;;;59.75;45.75;;;;;12.59;73.18;101498.03;4937365;28;45356;-73
2023/05/14 03:35:18;;;;;;;;;56.75;45.50;;;;;12.54;73.56;101494.94;4937268;28;45570;-73
2023/05/14 03:37:43;;;;;;;;;58.67;46.67;;;;;12.23;73.17;101427.53;4938231;28;45529;-73
2023/05/14 03:40:09;;;;;;;;;57.50;45.75;;;;;12.46;73.08;101468.97;4938441;28;45449;-73
2023/05/14 03:42:34;;;;;;;;;59.25;44.50;;;;;12.57;73.27;101500.84;4937164;28;45310;-72
2023/05/14 03:45:00;;;;;;;;;52.33;43.67;;;;;12.48;73.01;101464.34;4944780;28;45554;-73
2023/05/14 03:47:25;;;;;;;;;50.50;40.00;;;;;12.46;72.82;101467.16;4957590;28;45834;-73
2023/05/14 03:49:50;;;;;;;;;55.75;44.75;;;;;12.37;73.55;101481.28;4957124;28;45416;-73
2023/05/14 03:52:16;;;;;;;;;55.00;42.67;;;;;12.15;73.95;101468.19;4957863;28;45409;-73
2023/05/14 03:54:41;;;;;;;;;57.67;45.33;;;;;12.21;74.03;101488.97;4953340;28;45442;-72
2023/05/14 03:57:06;;;;;;;;;51.33;41.67;;;;;12.29;74.38;101478.47;4938180;28;45477;-73
2023/05/14 03:59:32;;;;;;;;;54.67;42.33;;;;;11.74;74.34;101424.72;4938172;28;45342;-75
2023/05/14 04:01:57;;;;;;;;;56.33;46.00;;;;;12.13;74.68;101502.16;4938435;28;45321;-73
2023/05/14 04:04:23;;;;;;;;;53.00;43.67;;;;;12.08;75.08;101493.72;4938255;28;45391;-73
2023/05/14 04:06:48;;;;;;;;;52.33;42.00;;;;;12.24;74.47;101483.41;4938278;28;46367;-72
2023/05/14 04:09:13;;;;;;;;;54.33;41.67;;;;;12.32;74.07;101483.53;4938017;28;50134;-73
2023/05/14 04:11:39;;;;;;;;;52.67;43.00;;;;;12.52;73.65;101505.75;4956209;28;45380;-73
2023/05/14 04:14:05;;;;;;;;;54.00;44.00;;;;;11.75;74.20;101409.56;4959509;28;45449;-73
2023/05/14 04:16:30;;;;;;;;;52.67;43.00;;;;;11.98;74.56;101450.19;4941313;28;46373;-73
2023/05/14 04:18:56;;;;;;;;;50.00;41.67;;;;;12.16;74.64;101491.22;4937978;28;45493;-73
2023/05/14 04:21:21;;;;;;;;;61.00;47.00;;;;;11.56;74.28;101365.06;4937997;28;45247;-74
2023/05/14 04:23:46;;;;;;;;;51.67;44.00;;;;;12.41;74.47;101503.19;4938331;28;45454;-74
2023/05/14 04:26:12;;;;;;;;;51.00;42.33;;;;;12.20;73.90;101460.63;4938060;28;45450;-73
2023/05/14 04:28:37;;;;;;;;;52.67;43.00;;;;;11.80;74.02;101383.38;4936812;28;45506;-73
2023/05/14 04:31:02;;;;;;;;;58.33;45.33;;;;;12.46;73.93;101492.97;4950045;28;45422;-73
2023/05/14 04:33:28;;;;;;;;;54.00;43.00;;;;;12.63;73.91;101502.13;4957393;28;45539;-74
2023/05/14 04:35:53;;;;;;;;;49.00;39.00;;;;;12.49;73.32;101482.88;4959067;28;46300;-73
2023/05/14 04:38:18;;;;;;;;;53.33;42.33;;;;;12.73;73.30;101505.63;4960894;28;45848;-73
2023/05/14 04:40:44;;;;;;;;;51.67;42.33;;;;;12.71;73.03;101486.25;4961270;28;45448;-74
2023/05/14 04:43:09;;;;;;;;;53.67;42.00;;;;;12.55;73.00;101470.78;4943813;28;45450;-74
2023/05/14 04:45:35;;;;;;;;;53.33;43.67;;;;;12.73;73.21;101506.47;4953325;28;46363;-73
2023/05/14 04:48:01;;;;;;;;;53.67;43.33;;;;;12.70;72.88;101505.91;4939927;28;45726;-74
2023/05/14 04:50:26;;;;;;;;;55.33;44.00;;;;;12.75;73.15;101487.66;4947393;28;45373;-73
2023/05/14 04:52:52;;;;;;;;;50.33;41.67;;;;;12.85;72.89;101499.19;4960564;28;45224;-74
2023/05/14 04:55:17;;;;;;;;;54.00;44.33;;;;;12.92;72.65;101515.47;4960484;28;46869;-73
2023/05/14 04:57:42;;;;;;;;;51.00;42.00;;;;;11.52;72.66;101281.09;4960210;28;45307;-73
2023/05/14 05:00:08;;;;;;;;;55.67;43.67;;;;;12.83;72.68;101489.66;4960361;28;45509;-74
2023/05/14 05:02:34;;;;;;;;;46.33;38.00;;;;;12.93;72.49;101503.81;4960286;28;45542;-73
2023/05/14 05:05:00;;;;;;;;;56.33;46.00;;;;;12.24;72.42;101402.56;4957697;28;46304;-73
2023/05/14 05:07:25;;;;;;;;;48.00;41.33;;;;;12.67;73.17;101493.69;4940628;28;45236;-73
2023/05/14 05:09:50;;;;;;;;;53.00;44.00;;;;;12.63;74.20;101510.97;4940918;28;45644;-74
2023/05/14 05:12:16;;;;;;;;;55.00;44.00;;;;;12.32;74.21;101451.53;4942306;28;45589;-75
2023/05/14 05:14:41;;;;;;;;;57.33;46.67;;;;;12.45;74.78;101497.47;4959553;28;46413;-74
2023/05/14 05:17:07;;;;;;;;;49.67;41.00;;;;;12.51;74.52;101495.22;4959602;28;45400;-74
2023/05/14 05:19:32;;;;;;;;;54.33;45.00;;;;;12.48;74.34;101483.84;4942250;28;45454;-73
2023/05/14 05:21:58;;;;;;;;;61.25;48.50;;;;;12.34;74.51;101489.56;4942331;28;45442;-73
2023/05/14 05:24:23;;;;;;;;;53.33;43.00;;;;;12.24;75.55;101502.06;4942238;28;47700;-75
2023/05/14 05:26:50;;;;;;;;;53.00;42.67;;;;;12.29;75.45;101502.47;4958119;28;46089;-73
2023/05/14 05:29:16;;;;;;;;;49.67;41.00;;;;;12.28;75.71;101484.78;4942275;28;45513;-74
2023/05/14 05:31:41;;;;;;;;;54.67;44.33;;;;;12.28;75.72;101484.78;4959664;28;45419;-74
2023/05/14 05:34:06;;;;;;;;;52.00;42.00;;;;;12.44;75.54;101506.44;4942000;28;48285;-73
2023/05/14 05:36:32;;;;;;;;;52.67;43.33;;;;;12.57;75.05;101502.66;4941912;28;45363;-74
2023/05/14 05:38:57;;;;;;;;;54.67;43.33;;;;;11.97;74.60;101384.56;4959351;28;45308;-74
2023/05/14 05:41:23;;;;;;;;;55.67;44.00;;;;;12.77;74.23;101507.03;4948245;28;45294;-74
2023/05/14 05:43:48;;;;;;;;;54.00;42.00;;;;;12.85;73.85;101509.03;4941314;28;48746;-73
2023/05/14 05:46:14;;;;;;;;;53.33;42.33;;;;;12.88;73.57;101514.06;4929702;28;45535;-73
2023/05/14 05:48:39;;;;;;;;;56.33;45.00;;;;;12.83;73.26;101501.16;4938199;28;45408;-74
2023/05/14 05:51:04;;;;;;;;;53.00;42.67;;;;;12.99;73.01;101519.25;4939404;28;45390;-76
2023/05/14 05:53:30;;;;;;;;;57.50;45.50;;;;;12.42;72.53;101431.06;4939594;28;46247;-73
2023/05/14 05:55:55;;;;;;;;;50.50;41.50;;;;;12.82;73.35;101522.66;4928938;28;45340;-73
2023/05/14 05:58:20;;;;;;;;;53.75;43.25;;;;;12.76;73.38;101521.38;4959381;28;45334;-73
2023/05/14 06:00:47;;;;;;;;;48.33;39.00;;;;;12.65;73.59;101534.84;4960622;28;45656;-74
2023/05/14 06:03:13;;;;;;;;;51.33;41.33;;;;;12.39;74.51;101497.16;4942530;28;47434;-74
2023/05/14 06:05:39;;;;;;;;;53.00;43.00;;;;;12.67;73.71;101549.72;4941718;28;45455;-73
2023/05/14 06:08:04;;;;;;;;;45.67;39.00;;;;;12.63;73.36;101524.31;4959245;28;45326;-72
2023/05/14 06:10:29;;;;;;;;;55.00;44.00;;;;;12.66;73.45;101547.19;4956688;28;45457;-72
2023/05/14 06:12:55;;;;;;;;;57.00;44.00;;;;;12.35;74.33;101512.59;4939005;28;46172;-72
2023/05/14 06:15:21;;;;;;;;;54.67;44.67;;;;;12.30;74.04;101506.84;4921984;28;45371;-72
2023/05/14 06:17:47;;;;;;;;;54.00;42.00;;;;;12.29;74.97;101523.81;4922165;28;45304;-74
2023/05/14 06:20:12;;;;;;;;;53.67;44.00;;;;;12.44;74.83;101549.13;4939957;28;45416;-73
2023/05/14 06:22:37;;;;;;;;;55.67;44.00;;;;;12.28;74.28;101503.47;4921988;28;47398;-72
2023/05/14 06:25:03;;;;;;;;;57.50;45.50;;;;;12.65;74.11;101550.84;4939696;28;45442;-74
2023/05/14 06:27:28;;;;;;;;;53.00;41.00;;;;;12.11;73.33;101456.97;4939316;28;45245;-73
2023/05/14 06:29:54;;;;;;;;;51.00;40.33;;;;;12.82;73.06;101552.84;4959394;28;45251;-73
2023/05/14 06:32:19;;;;;;;;;56.25;45.50;;;;;12.92;72.44;101553.69;4954495;28;46500;-72
2023/05/14 06:34:45;;;;;;;;;57.25;45.50;;;;;12.97;72.17;101567.44;4957379;28;45394;-74
2023/05/14 06:37:10;;;;;;;;;57.67;46.67;;;;;12.04;72.29;101397.22;4957868;28;45552;-74
2023/05/14 06:39:36;;;;;;;;;56.75;45.50;;;;;13.08;72.17;101562.00;4955858;28;47006;-74
2023/05/14 06:42:02;;;;;;;;;53.00;43.33;;;;;13.04;71.60;101563.25;4945062;28;45799;-85
2023/05/14 06:44:27;;;;;;;;;56.67;44.33;;;;;13.06;71.62;101555.09;4939050;28;45304;-73
2023/05/14 06:46:53;;;;;;;;;52.67;42.67;;;;;13.08;71.23;101559.31;4938555;28;54719;-74
2023/05/14 06:49:18;;;;;;;;;59.67;45.67;;;;;12.43;71.15;101451.44;4935627;28;45459;-74
2023/05/14 06:51:44;;;;;;;;;54.00;42.67;;;;;13.12;70.83;101569.72;4949898;28;46293;-73
2023/05/14 06:54:10;;;;;;;;;50.00;43.00;;;;;13.18;71.20;101563.81;4958106;28;45404;-74
2023/05/14 06:56:35;;;;;;;;;55.00;44.67;;;;;13.03;70.62;101539.38;4958142;28;45382;-74
2023/05/14 06:59:01;;;;;;;;;60.00;46.33;;;;;13.19;70.78;101544.16;4958043;28;45484;-75
2023/05/14 07:01:26;;;;;;;;;54.00;43.67;;;;;13.19;70.34;101538.81;4940552;28;46557;-75
2023/05/14 07:03:51;;;;;;;;;54.33;44.33;;;;;13.25;69.71;101538.28;4957445;28;45245;-75
2023/05/14 07:06:17;;;;;;;;;53.00;42.00;;;;;13.28;69.87;101532.63;4938936;28;45245;-74
2023/05/14 07:08:44;;;;;;;;;51.00;41.33;;;;;13.30;69.57;101530.66;4921321;28;45495;-74
2023/05/14 07:11:12;;;;;;;;;58.33;47.00;;;;;13.39;69.55;101551.16;4939035;28;48506;-74
2023/05/14 07:13:37;;;;;;;;;58.33;48.33;;;;;13.34;69.16;101532.06;4957232;28;45339;-74
2023/05/14 07:16:03;;;;;;;;;54.33;45.67;;;;;13.43;69.18;101536.56;4955543;28;45379;-74
2023/05/14 07:18:28;;;;;;;;;50.67;41.67;;;;;13.34;68.79;101532.06;4924421;28;45604;-74
2023/05/14 07:20:53;;;;;;;;;51.00;42.00;;;;;13.40;68.90;101526.97;4949276;28;45767;-74
2023/05/14 07:23:19;;;;;;;;;58.00;45.00;;;;;13.44;68.11;101527.56;4948747;28;66578;-74
2023/05/14 07:25:44;;;;;;;;;56.00;46.00;;;;;13.51;67.81;101536.69;4956440;28;45369;-75
2023/05/14 07:28:10;;;;;;;;;53.33;40.33;;;;;13.54;68.24;101549.75;4936228;28;45384;-74
2023/05/14 07:30:35;;;;;;;;;56.00;46.00;;;;;13.65;68.30;101562.94;4952776;28;45655;-75
2023/05/14 07:33:00;;;;;;;;;55.33;43.00;;;;;13.53;68.39;101549.88;4954090;28;45479;-74
2023/05/14 07:35:26;;;;;;;;;52.67;45.00;;;;;13.56;68.57;101554.94;4957663;28;45419;-75
2023/05/14 07:37:51;;;;;;;;;59.67;48.00;;;;;13.27;69.11;101545.16;4956377;28;45476;-73
2023/05/14 07:40:17;;;;;;;;;55.00;44.67;;;;;13.52;68.69;101573.09;4939618;28;47889;-75
2023/05/14 07:42:42;;;;;;;;;54.67;44.67;;;;;13.27;68.97;101529.13;4955950;28;45621;-73
2023/05/14 07:45:08;;;;;;;;;52.00;42.33;;;;;13.35;68.94;101545.28;4957450;28;45324;-74
2023/05/14 07:47:34;;;;;;;;;59.67;47.00;;;;;13.48;68.90;101571.69;4941090;28;45562;-74
2023/05/14 07:49:59;;;;;;;;;56.33;45.33;;;;;13.51;68.56;101568.72;4955967;28;47868;-74
2023/05/14 07:52:24;;;;;;;;;62.00;49.67;;;;;13.51;68.17;101567.91;4939750;28;45336;-74
2023/05/14 07:54:50;;;;;;;;;54.33;42.67;;;;;13.42;68.57;101566.94;4940298;28;45522;-74
2023/05/14 07:57:16;;;;;;;;;55.00;43.00;;;;;13.47;68.37;101555.81;4946621;28;45438;-75
2023/05/14 07:59:42;;;;;;;;;56.00;44.67;;;;;13.21;68.22;101520.81;4940495;28;46413;-76
2023/05/14 08:02:09;;;;;;;;;59.67;47.33;;;;;13.42;68.17;101563.41;4948553;28;45439;-79
2023/05/14 08:04:34;;;;;;;;;59.33;47.67;;;;;12.77;68.16;101445.66;4938326;28;46456;-75
2023/05/14 08:07:00;;;;;;;;;63.33;48.33;;;;;13.54;68.51;101557.75;4946874;28;45538;-74
2023/05/14 08:09:26;;;;;;;;;59.00;47.67;;;;;13.60;67.82;101549.16;4957946;28;45493;-74
2023/05/14 08:11:51;;;;;;;;;56.00;45.67;;;;;12.87;67.73;101398.47;4960162;28;45446;-79
2023/05/14 08:14:16;;;;;;;;;59.67;45.67;;;;;13.88;67.84;101551.91;4942168;28;45487;-75
2023/05/14 08:16:41;;;;;;;;;57.33;46.33;;;;;13.97;67.27;101553.69;4959889;28;45519;-75
2023/05/14 08:19:07;;;;;;;;;57.67;46.67;;;;;14.00;67.01;101553.41;4958362;28;48804;-74
2023/05/14 08:21:32;;;;;;;;;60.33;48.33;;;;;14.09;66.98;101570.41;4942646;28;45433;-75
2023/05/14 08:23:57;;;;;;;;;61.67;47.33;;;;;13.99;66.79;101536.53;4958731;28;45590;-76
2023/05/14 08:26:23;;;;;;;;;63.00;49.33;;;;;14.04;66.23;101549.47;4958280;28;45334;-72
2023/05/14 08:28:48;;;;;;;;;58.67;47.00;;;;;14.04;66.95;101576.22;4959888;28;46355;-75
2023/05/14 08:31:14;;;;;;;;;59.00;47.67;;;;;13.89;66.95;101543.75;4942263;28;46138;-73
2023/05/14 08:33:40;;;;;;;;;58.67;46.67;;;;;14.08;66.16;101566.91;4958429;28;45329;-75
2023/05/14 08:36:06;;;;;;;;;51.33;42.00;;;;;13.96;66.05;101554.69;4963201;28;45471;-75
2023/05/14 08:38:31;;;;;;;;;54.00;45.00;;;;;13.15;65.91;101467.97;4968977;28;45728;-77
2023/05/14 08:40:58;;;;;;;;;50.00;42.00;;;;;13.77;65.94;101568.94;4959392;28;45415;-76
2023/05/14 08:43:32;;;;;;;;;55.33;45.33;;;;;13.70;66.15;101535.78;4959603;28;45385;-74
2023/05/14 08:46:00;;;;;;;;;48.33;39.33;;;;;13.57;66.04;101487.16;4959465;28;45544;-73
2023/05/14 08:48:32;;;;;;;;;59.67;46.67;;;;;14.29;65.58;101578.22;4959139;28;45619;-75
2023/05/14 08:50:58;;;;;;;;;54.00;46.00;;;;;14.44;65.25;101577.75;4958838;28;45431;-74
2023/05/14 08:53:24;;;;;;;;;54.67;42.67;;;;;14.51;65.08;101581.50;4941498;28;45368;-76
2023/05/14 08:55:50;;;;;;;;;60.33;47.67;;;;;14.57;64.74;101576.41;4958529;28;45474;-75
2023/05/14 08:58:16;;;;;;;;;55.00;41.67;;;;;14.53;64.75;101566.16;4941571;28;47671;-77
2023/05/14 09:00:41;;;;;;;;;50.33;40.33;;;;;14.55;64.73;101566.84;4957278;28;45465;-75
2023/05/14 09:03:07;;;;;;;;;50.67;41.67;;;;;14.72;64.74;101587.44;4959217;28;45291;-75
2023/05/14 09:05:32;;;;;;;;;56.33;42.67;;;;;14.76;64.22;101567.41;4941380;28;45323;-72
2023/05/14 09:07:58;;;;;;;;;53.33;44.33;;;;;14.76;63.82;101579.94;4941241;28;46668;-75
2023/05/14 09:10:24;;;;;;;;;50.00;41.67;;;;;14.67;63.46;101576.34;4941509;28;45341;-76
2023/05/14 09:12:50;;;;;;;;;51.33;42.33;;;;;14.58;63.88;101574.56;4919752;28;1136972;-77
2023/05/14 09:15:16;;;;;;;;;53.67;44.00;;;;;14.51;64.29;101581.50;4959766;28;45569;-75
2023/05/14 09:17:42;;;;;;;;;54.00;44.67;;;;;14.12;64.63;101522.81;4941749;28;47426;-74
2023/05/14 09:20:08;;;;;;;;;56.67;46.00;;;;;14.42;64.18;101550.28;4959891;28;45411;-75
2023/05/14 09:22:33;;;;;;;;;52.00;42.67;;;;;14.55;63.96;101564.16;4941352;28;45466;-73
2023/05/14 09:25:08;;;;;;;;;57.33;47.33;;;;;14.67;63.73;101584.38;4959309;28;45427;-76
2023/05/14 09:27:34;;;;;;;;;52.67;44.00;;;;;14.46;63.01;101530.28;4955724;28;47238;-76
2023/05/14 09:30:12;;;;;;;;;47.33;39.67;;;;;14.62;63.57;101567.94;4958769;28;45421;-77
2023/05/14 09:32:42;;;;;;;;;53.67;43.67;;;;;14.77;62.79;101561.06;4943205;28;45284;-76
2023/05/14 09:35:19;;;;;;;;;51.33;40.33;;;;;14.79;62.89;101564.41;4959779;28;45418;-76
2023/05/14 09:37:49;;;;;;;;;53.00;40.67;;;;;14.72;62.48;101544.63;4958956;28;46485;-75
2023/05/14 09:40:16;;;;;;;;;46.33;41.33;;;;;14.26;62.90;101468.00;4958014;28;45444;-74
2023/05/14 09:42:42;;;;;;;;;51.33;42.33;;;;;14.84;62.84;101545.25;4957549;28;45498;-77
2023/05/14 09:45:09;;;;;;;;;54.00;42.67;;;;;15.12;62.57;101570.09;4942121;28;45239;-71
2023/05/14 09:47:35;;;;;;;;;45.00;38.33;;;;;15.20;62.46;101570.16;4959583;28;46455;-72
2023/05/14 09:50:01;;;;;;;;;54.33;41.67;;;;;14.72;61.89;101488.41;4951662;28;45520;-73
2023/05/14 09:52:26;;;;;;;;;51.00;42.00;;;;;15.00;61.82;101545.38;4938382;28;45382;-72
2023/05/14 09:54:52;;;;;;;;;55.00;41.33;;;;;15.14;62.06;101577.00;4940053;28;45241;-73
2023/05/14 09:57:18;;;;;;;;;47.33;39.67;;;;;15.21;62.16;101574.53;4939784;28;46199;-70
2023/05/14 09:59:44;;;;;;;;;52.67;40.67;;;;;15.08;61.95;101548.16;4950960;28;45535;-71
2023/05/14 10:02:36;;;;;;;;;50.00;41.00;;;;;15.14;61.89;101571.63;4940820;28;45429;-72
2023/05/14 10:05:03;;;;;;;;;50.33;39.33;;;;;15.09;61.90;101559.72;4946501;28;45446;-72
2023/05/14 10:07:35;;;;;;;;;48.33;39.67;;;;;15.36;61.84;101567.63;4939184;28;48687;-71
2023/05/14 10:10:05;;;;;;;;;45.67;36.00;;;;;15.31;61.00;101528.91;4937319;28;45640;-73
2023/05/14 10:12:38;;;;;;;;;52.00;43.00;;;;;15.58;60.62;101570.81;4956470;28;45266;-73
2023/05/14 10:15:12;;;;;;;;;51.33;40.33;;;;;15.63;60.12;101557.84;4954853;28;45481;-73
2023/05/14 10:17:42;;;;;;;;;55.33;44.67;;;;;15.52;59.53;101562.41;4952582;28;46516;-71
2023/05/14 10:20:14;;;;;;;;;48.00;39.00;;;;;15.47;60.66;101575.44;4952143;28;45492;-73
2023/05/14 10:22:39;;;;;;;;;48.33;36.67;;;;;15.04;60.08;101470.97;4957251;28;45299;-74
2023/05/14 10:25:06;;;;;;;;;54.00;43.00;;;;;15.76;59.51;101568.97;4940600;28;45353;-72
2023/05/14 10:27:32;;;;;;;;;43.33;36.33;;;;;15.77;59.13;101565.28;4939552;28;47630;-73
2023/05/14 10:29:57;;;;;;;;;52.00;40.00;;;;;15.91;58.99;101572.75;4958185;28;45493;-72
2023/05/14 10:32:24;;;;;;;;;51.33;41.00;;;;;16.06;58.67;101560.44;4957486;28;45297;-73
2023/05/14 10:34:53;;;;;;;;;49.00;37.67;;;;;16.26;57.83;101554.84;4957907;28;45508;-71
2023/05/14 10:37:24;;;;;;;;;47.00;38.00;;;;;16.33;57.98;101556.72;4957967;28;45704;-74
2023/05/14 10:39:51;;;;;;;;;53.00;44.33;;;;;16.52;58.22;101550.22;4940439;28;45377;-73
2023/05/14 10:42:26;;;;;;;;;45.33;37.67;;;;;16.67;57.35;101562.06;4940719;28;45501;-74
2023/05/14 10:44:57;;;;;;;;;50.00;41.00;;;;;16.52;57.17;101520.69;4938345;28;45640;-71
2023/05/14 10:47:27;;;;;;;;;48.33;37.00;;;;;16.92;56.66;101554.03;4940529;28;46752;-73
2023/05/14 10:50:00;;;;;;;;;54.67;42.33;;;;;16.89;55.87;101514.09;4937378;28;45518;-74
2023/05/14 10:52:25;;;;;;;;;50.33;39.67;;;;;17.26;55.12;101546.69;4937350;28;45362;-74
2023/05/14 10:54:58;;;;;;;;;47.33;38.33;;;;;17.34;55.38;101527.88;4947391;28;45426;-73
2023/05/14 10:57:27;;;;;;;;;46.33;40.33;;;;;17.70;54.65;101545.50;4957706;28;45723;-73
2023/05/14 10:59:55;;;;;;;;;53.00;41.67;;;;;17.83;53.74;101530.53;4957303;28;45590;-72
2023/05/14 11:02:24;;;;;;;;;47.00;38.00;;;;;17.98;52.87;101536.00;4940118;28;45381;-76
2023/05/14 11:05:04;;;;;;;;;48.67;37.67;;;;;18.15;52.60;101531.41;4957051;28;45481;-76
2023/05/14 11:07:33;;;;;;;;;46.33;39.67;;;;;18.28;52.47;101510.16;4954298;28;46419;-75